createdAt,value
2023-03-11T00:00:19.934Z,997.84
2023-03-11T00:01:19.954Z,997.87
2023-03-11T00:02:19.948Z,997.79
2023-03-11T00:03:19.942Z,997.89
2023-03-11T00:04:19.898Z,997.90
2023-03-11T00:05:19.983Z,998.00
2023-03-11T00:06:19.881Z,997.95
2023-03-11T00:07:19.863Z,998.07
2023-03-11T00:08:19.849Z,998.07
2023-03-11T00:09:19.844Z,998.01
2023-03-11T00:10:19.830Z,997.99
2023-03-11T00:11:19.848Z,998.03
2023-03-11T00:12:19.806Z,997.96
2023-03-11T00:13:19.801Z,997.93
2023-03-11T00:14:19.783Z,997.97
2023-03-11T00:15:19.795Z,997.95
2023-03-11T00:16:19.813Z,998.04
2023-03-11T00:17:19.753Z,998.00
2023-03-11T00:18:19.745Z,998.02
2023-03-11T00:19:19.768Z,998.08
2023-03-11T00:20:19.720Z,998.09
2023-03-11T00:21:19.727Z,998.12
2023-03-11T00:22:19.696Z,998.20
2023-03-11T00:23:19.696Z,998.13
2023-03-11T00:24:19.675Z,998.14
2023-03-11T00:25:19.670Z,998.18
2023-03-11T00:26:19.653Z,998.22
2023-03-11T00:27:19.651Z,998.24
2023-03-11T00:28:19.642Z,998.25
2023-03-11T00:29:19.628Z,998.24
2023-03-11T00:30:19.613Z,998.22
2023-03-11T00:31:19.687Z,998.28
2023-03-11T00:32:19.640Z,998.26
2023-03-11T00:33:19.609Z,998.25
2023-03-11T00:34:19.566Z,998.26
2023-03-11T00:35:19.585Z,998.37
2023-03-11T00:36:19.544Z,998.39
2023-03-11T00:37:19.542Z,998.33
2023-03-11T00:38:19.613Z,998.35
2023-03-11T00:39:19.526Z,998.38
2023-03-11T00:40:19.506Z,998.40
2023-03-11T00:41:19.492Z,998.46
2023-03-11T00:42:19.477Z,998.50
2023-03-11T00:43:19.493Z,998.43
2023-03-11T00:44:19.461Z,998.52
2023-03-11T00:45:19.453Z,998.54
2023-03-11T00:46:19.508Z,998.55
2023-03-11T00:47:19.431Z,998.44
2023-03-11T00:48:19.410Z,998.52
2023-03-11T00:49:19.416Z,998.49
2023-03-11T00:50:19.392Z,998.51
2023-03-11T00:51:19.406Z,998.50
2023-03-11T00:52:19.376Z,998.54
2023-03-11T00:53:19.366Z,998.47
2023-03-11T00:54:19.354Z,998.51
2023-03-11T00:55:19.341Z,998.52
2023-03-11T00:56:19.339Z,998.54
2023-03-11T00:57:19.317Z,998.53
2023-03-11T00:58:19.312Z,998.51
2023-03-11T00:59:19.308Z,998.52
2023-03-11T01:00:19.293Z,998.56
2023-03-11T01:01:19.318Z,998.57
2023-03-11T01:02:19.263Z,998.62
2023-03-11T01:03:19.255Z,998.64
2023-03-11T01:04:19.339Z,998.64
2023-03-11T01:05:19.243Z,998.65
2023-03-11T01:06:19.218Z,998.69
2023-03-11T01:07:19.231Z,998.68
2023-03-11T01:08:19.202Z,998.75
2023-03-11T01:09:19.193Z,998.73
2023-03-11T01:10:19.222Z,998.69
2023-03-11T01:11:19.166Z,998.74
2023-03-11T01:12:19.155Z,998.80
2023-03-11T01:13:19.141Z,998.87
2023-03-11T01:14:19.130Z,998.88
2023-03-11T01:15:19.122Z,998.92
2023-03-11T01:16:19.169Z,998.92
2023-03-11T01:17:19.099Z,998.93
2023-03-11T01:18:19.087Z,998.97
2023-03-11T01:19:19.079Z,998.96
2023-03-11T01:20:19.066Z,999.03
2023-03-11T01:21:19.063Z,999.02
2023-03-11T01:22:19.060Z,998.97
2023-03-11T01:23:19.064Z,999.00
2023-03-11T01:24:19.020Z,998.99
2023-03-11T01:25:19.014Z,999.00
2023-03-11T01:26:19.007Z,999.03
2023-03-11T01:27:18.992Z,999.00
2023-03-11T01:28:19.005Z,999.09
2023-03-11T01:29:18.978Z,999.10
2023-03-11T01:30:18.964Z,999.06
2023-03-11T01:31:18.956Z,999.10
2023-03-11T01:32:18.984Z,999.14
2023-03-11T01:33:18.930Z,999.15
2023-03-11T01:34:18.923Z,999.21
2023-03-11T01:35:18.903Z,999.12
2023-03-11T01:36:18.897Z,999.16
2023-03-11T01:37:18.885Z,999.22
2023-03-11T01:38:18.899Z,999.24
2023-03-11T01:39:18.884Z,999.22
2023-03-11T01:40:18.863Z,999.21
2023-03-11T01:41:18.835Z,999.21
2023-03-11T01:42:18.837Z,999.14
2023-03-11T01:43:18.832Z,999.18
2023-03-11T01:44:18.808Z,999.21
2023-03-11T01:45:18.796Z,999.18
2023-03-11T01:46:18.893Z,999.18
2023-03-11T01:47:18.774Z,999.18
2023-03-11T01:48:18.773Z,999.17
2023-03-11T01:49:18.750Z,999.15
2023-03-11T01:50:18.738Z,999.20
2023-03-11T01:51:18.724Z,999.18
2023-03-11T01:52:18.721Z,999.15
2023-03-11T01:53:18.715Z,999.17
2023-03-11T01:54:18.702Z,999.17
2023-03-11T01:55:18.706Z,999.17
2023-03-11T01:56:18.677Z,999.22
2023-03-11T01:57:18.686Z,999.20
2023-03-11T01:58:18.657Z,999.24
2023-03-11T01:59:18.650Z,999.28
2023-03-11T02:00:18.630Z,999.31
2023-03-11T02:01:18.646Z,999.29
2023-03-11T02:02:18.606Z,999.35
2023-03-11T02:03:18.711Z,999.34
2023-03-11T02:04:18.589Z,999.30
2023-03-11T02:05:18.587Z,999.30
2023-03-11T02:06:18.564Z,999.39
2023-03-11T02:07:18.549Z,999.34
2023-03-11T02:08:18.551Z,999.36
2023-03-11T02:09:18.538Z,999.34
2023-03-11T02:10:18.536Z,999.35
2023-03-11T02:11:18.540Z,999.31
2023-03-11T02:12:18.501Z,999.41
2023-03-11T02:13:18.504Z,999.35
2023-03-11T02:14:18.495Z,999.39
2023-03-11T02:15:18.468Z,999.46
2023-03-11T02:16:18.567Z,999.44
2023-03-11T02:17:18.458Z,999.34
2023-03-11T02:18:18.452Z,999.33
2023-03-11T02:19:18.435Z,999.45
2023-03-11T02:20:18.422Z,999.39
2023-03-11T02:21:18.429Z,999.41
2023-03-11T02:22:18.409Z,999.43
2023-03-11T02:23:18.396Z,999.42
2023-03-11T02:24:18.386Z,999.43
2023-03-11T02:25:18.379Z,999.40
2023-03-11T02:26:18.358Z,999.43
2023-03-11T02:27:18.395Z,999.49
2023-03-11T02:28:18.340Z,999.45
2023-03-11T02:29:18.349Z,999.47
2023-03-11T02:30:18.329Z,999.43
2023-03-11T02:31:18.313Z,999.46
2023-03-11T02:32:18.304Z,999.46
2023-03-11T02:33:18.278Z,999.43
2023-03-11T02:34:18.280Z,999.44
2023-03-11T02:35:18.305Z,999.37
2023-03-11T02:36:18.252Z,999.44
2023-03-11T02:37:18.238Z,999.43
2023-03-11T02:38:18.227Z,999.48
2023-03-11T02:39:18.212Z,999.44
2023-03-11T02:40:18.213Z,999.45
2023-03-11T02:41:18.224Z,999.49
2023-03-11T02:42:18.187Z,999.55
2023-03-11T02:43:18.194Z,999.54
2023-03-11T02:44:18.162Z,999.48
2023-03-11T02:45:18.174Z,999.60
2023-03-11T02:46:18.223Z,999.53
2023-03-11T02:47:18.156Z,999.54
2023-03-11T02:48:18.122Z,999.63
2023-03-11T02:49:18.109Z,999.62
2023-03-11T02:50:18.109Z,999.62
2023-03-11T02:51:18.080Z,999.66
2023-03-11T02:52:18.080Z,999.64
2023-03-11T02:53:18.068Z,999.60
2023-03-11T02:54:18.050Z,999.64
2023-03-11T02:55:18.043Z,999.62
2023-03-11T02:56:18.047Z,999.63
2023-03-11T02:57:18.010Z,999.66
2023-03-11T02:58:25.112Z,999.67
2023-03-11T02:59:17.991Z,999.70
2023-03-11T03:00:17.983Z,999.69
2023-03-11T03:01:18.040Z,999.67
2023-03-11T03:02:17.974Z,999.69
2023-03-11T03:03:17.959Z,999.75
2023-03-11T03:04:18.029Z,999.73
2023-03-11T03:05:17.937Z,999.70
2023-03-11T03:06:17.939Z,999.75
2023-03-11T03:07:17.914Z,999.74
2023-03-11T03:08:17.902Z,999.75
2023-03-11T03:09:17.883Z,999.69
2023-03-11T03:10:17.882Z,999.76
2023-03-11T03:11:17.859Z,999.75
2023-03-11T03:12:17.855Z,999.81
2023-03-11T03:13:17.860Z,999.84
2023-03-11T03:14:17.852Z,999.82
2023-03-11T03:15:17.823Z,999.88
2023-03-11T03:16:17.856Z,999.85
2023-03-11T03:17:17.833Z,999.88
2023-03-11T03:18:17.795Z,999.85
2023-03-11T03:19:17.775Z,999.88
2023-03-11T03:20:17.764Z,999.88
2023-03-11T03:21:17.763Z,999.89
2023-03-11T03:22:17.753Z,999.97
2023-03-11T03:23:17.731Z,999.94
2023-03-11T03:24:17.736Z,999.96
2023-03-11T03:25:17.741Z,999.99
2023-03-11T03:26:17.708Z,1000.00
2023-03-11T03:27:17.693Z,999.94
2023-03-11T03:28:17.688Z,999.96
2023-03-11T03:29:17.666Z,999.94
2023-03-11T03:30:17.698Z,1000.03
2023-03-11T03:31:17.737Z,1000.03
2023-03-11T03:32:17.683Z,999.98
2023-03-11T03:33:17.620Z,1000.03
2023-03-11T03:34:17.616Z,1000.05
2023-03-11T03:35:17.614Z,1000.03
2023-03-11T03:36:17.593Z,1000.07
2023-03-11T03:37:17.595Z,1000.06
2023-03-11T03:38:17.570Z,1000.10
2023-03-11T03:39:17.564Z,1000.13
2023-03-11T03:40:17.563Z,1000.18
2023-03-11T03:41:17.576Z,1000.14
2023-03-11T03:42:17.541Z,1000.18
2023-03-11T03:43:17.522Z,1000.19
2023-03-11T03:44:17.510Z,1000.10
2023-03-11T03:45:17.491Z,1000.08
2023-03-11T03:46:17.596Z,1000.12
2023-03-11T03:47:17.479Z,1000.16
2023-03-11T03:48:17.467Z,1000.16
2023-03-11T03:49:17.457Z,1000.17
2023-03-11T03:50:17.447Z,1000.22
2023-03-11T03:51:17.438Z,1000.20
2023-03-11T03:52:17.428Z,1000.19
2023-03-11T03:53:17.423Z,1000.24
2023-03-11T03:54:17.420Z,1000.20
2023-03-11T03:55:17.387Z,1000.20
2023-03-11T03:56:17.414Z,1000.20
2023-03-11T03:57:17.384Z,1000.24
2023-03-11T03:58:17.360Z,1000.24
2023-03-11T03:59:17.339Z,1000.19
2023-03-11T04:00:17.336Z,1000.19
2023-03-11T04:01:17.320Z,1000.19
2023-03-11T04:02:17.410Z,1000.22
2023-03-11T04:03:17.334Z,1000.23
2023-03-11T04:04:17.295Z,1000.19
2023-03-11T04:05:17.274Z,1000.24
2023-03-11T04:06:17.265Z,1000.26
2023-03-11T04:07:17.255Z,1000.27
2023-03-11T04:08:17.255Z,1000.24
2023-03-11T04:09:17.243Z,1000.25
2023-03-11T04:10:17.240Z,1000.29
2023-03-11T04:11:17.212Z,1000.34
2023-03-11T04:12:17.207Z,1000.41
2023-03-11T04:13:17.213Z,1000.39
2023-03-11T04:14:17.196Z,1000.37
2023-03-11T04:15:17.181Z,1000.37
2023-03-11T04:16:17.234Z,1000.45
2023-03-11T04:17:17.149Z,1000.42
2023-03-11T04:18:17.159Z,1000.38
2023-03-11T04:19:17.135Z,1000.43
2023-03-11T04:20:17.122Z,1000.44
2023-03-11T04:21:17.105Z,1000.46
2023-03-11T04:22:17.117Z,1000.49
2023-03-11T04:23:17.084Z,1000.47
2023-03-11T04:24:17.089Z,1000.47
2023-03-11T04:25:17.061Z,1000.44
2023-03-11T04:26:17.083Z,1000.45
2023-03-11T04:27:17.037Z,1000.50
2023-03-11T04:28:17.057Z,1000.49
2023-03-11T04:29:17.054Z,1000.48
2023-03-11T04:30:17.020Z,1000.54
2023-03-11T04:31:17.124Z,1000.54
2023-03-11T04:32:17.045Z,1000.60
2023-03-11T04:33:16.993Z,1000.66
2023-03-11T04:34:16.978Z,1000.61
2023-03-11T04:35:16.945Z,1000.61
2023-03-11T04:36:16.942Z,1000.59
2023-03-11T04:37:16.929Z,1000.62
2023-03-11T04:38:16.920Z,1000.67
2023-03-11T04:39:16.913Z,1000.66
2023-03-11T04:40:16.895Z,1000.70
2023-03-11T04:41:16.885Z,1000.74
2023-03-11T04:42:16.870Z,1000.74
2023-03-11T04:43:16.869Z,1000.73
2023-03-11T04:44:16.872Z,1000.75
2023-03-11T04:45:16.838Z,1000.72
2023-03-11T04:46:16.965Z,1000.69
2023-03-11T04:47:16.848Z,1000.74
2023-03-11T04:48:16.803Z,1000.72
2023-03-11T04:49:16.790Z,1000.72
2023-03-11T04:50:16.809Z,1000.74
2023-03-11T04:51:16.769Z,1000.71
2023-03-11T04:52:16.762Z,1000.74
2023-03-11T04:53:16.744Z,1000.76
2023-03-11T04:54:16.765Z,1000.76
2023-03-11T04:55:16.762Z,1000.76
2023-03-11T04:56:16.713Z,1000.80
2023-03-11T04:57:16.700Z,1000.84
2023-03-11T04:58:16.691Z,1000.81
2023-03-11T04:59:16.676Z,1000.88
2023-03-11T05:00:16.686Z,1000.83
2023-03-11T05:01:16.696Z,1000.92
2023-03-11T05:02:16.657Z,1000.93
2023-03-11T05:03:16.656Z,1000.92
2023-03-11T05:04:16.634Z,1000.94
2023-03-11T05:05:16.613Z,1001.08
2023-03-11T05:06:16.657Z,1000.97
2023-03-11T05:07:16.601Z,1001.10
2023-03-11T05:08:16.585Z,1001.04
2023-03-11T05:09:16.587Z,1001.05
2023-03-11T05:10:16.587Z,1001.09
2023-03-11T05:11:16.548Z,1001.07
2023-03-11T05:12:16.552Z,1001.10
2023-03-11T05:13:16.529Z,1001.10
2023-03-11T05:14:16.540Z,1001.08
2023-03-11T05:15:16.508Z,1001.07
2023-03-11T05:16:16.537Z,1001.11
2023-03-11T05:17:16.495Z,1001.18
2023-03-11T05:18:16.478Z,1001.18
2023-03-11T05:19:16.471Z,1001.19
2023-03-11T05:20:16.637Z,1001.23
2023-03-11T05:21:16.442Z,1001.20
2023-03-11T05:22:16.460Z,1001.18
2023-03-11T05:23:16.431Z,1001.24
2023-03-11T05:24:16.408Z,1001.30
2023-03-11T05:25:16.404Z,1001.23
2023-03-11T05:26:16.400Z,1001.25
2023-03-11T05:27:16.379Z,1001.29
2023-03-11T05:28:16.364Z,1001.30
2023-03-11T05:29:16.356Z,1001.33
2023-03-11T05:30:16.351Z,1001.33
2023-03-11T05:31:16.353Z,1001.31
2023-03-11T05:32:16.375Z,1001.33
2023-03-11T05:33:16.319Z,1001.37
2023-03-11T05:34:16.301Z,1001.37
2023-03-11T05:35:16.286Z,1001.41
2023-03-11T05:36:16.290Z,1001.38
2023-03-11T05:37:16.274Z,1001.42
2023-03-11T05:38:16.293Z,1001.52
2023-03-11T05:39:16.265Z,1001.44
2023-03-11T05:40:16.241Z,1001.48
2023-03-11T05:41:16.225Z,1001.47
2023-03-11T05:42:16.225Z,1001.47
2023-03-11T05:43:16.217Z,1001.50
2023-03-11T05:44:16.200Z,1001.52
2023-03-11T05:45:16.190Z,1001.52
2023-03-11T05:46:16.256Z,1001.54
2023-03-11T05:47:16.169Z,1001.59
2023-03-11T05:48:16.163Z,1001.54
2023-03-11T05:49:16.157Z,1001.59
2023-03-11T05:50:16.138Z,1001.55
2023-03-11T05:51:16.137Z,1001.57
2023-03-11T05:52:16.113Z,1001.64
2023-03-11T05:53:16.115Z,1001.58
2023-03-11T05:54:16.108Z,1001.62
2023-03-11T05:55:16.096Z,1001.67
2023-03-11T05:56:16.063Z,1001.64
2023-03-11T05:57:16.057Z,1001.70
2023-03-11T05:58:16.109Z,1001.66
2023-03-11T05:59:16.675Z,1001.64
2023-03-11T06:00:16.036Z,1001.64
2023-03-11T06:01:16.012Z,1001.59
2023-03-11T06:02:15.994Z,1001.64
2023-03-11T06:03:15.994Z,1001.65
2023-03-11T06:04:16.131Z,1001.60
2023-03-11T06:05:16.174Z,1001.63
2023-03-11T06:06:15.953Z,1001.67
2023-03-11T06:07:15.943Z,1001.60
2023-03-11T06:08:15.930Z,1001.61
2023-03-11T06:09:15.952Z,1001.63
2023-03-11T06:10:15.932Z,1001.64
2023-03-11T06:11:15.911Z,1001.67
2023-03-11T06:12:15.893Z,1001.70
2023-03-11T06:13:15.958Z,1001.74
2023-03-11T06:14:15.870Z,1001.66
2023-03-11T06:15:15.881Z,1001.66
2023-03-11T06:16:15.901Z,1001.74
2023-03-11T06:17:15.840Z,1001.78
2023-03-11T06:18:15.821Z,1001.77
2023-03-11T06:19:15.842Z,1001.71
2023-03-11T06:20:15.804Z,1001.75
2023-03-11T06:21:15.792Z,1001.73
2023-03-11T06:22:15.779Z,1001.81
2023-03-11T06:23:15.776Z,1001.87
2023-03-11T06:24:15.753Z,1001.83
2023-03-11T06:25:15.762Z,1001.83
2023-03-11T06:26:15.766Z,1001.83
2023-03-11T06:27:15.723Z,1001.90
2023-03-11T06:28:15.713Z,1001.86
2023-03-11T06:29:15.709Z,1001.88
2023-03-11T06:30:15.712Z,1001.94
2023-03-11T06:31:15.789Z,1001.93
2023-03-11T06:32:15.730Z,1002.00
2023-03-11T06:33:15.656Z,1002.02
2023-03-11T06:34:15.650Z,1002.00
2023-03-11T06:35:15.647Z,1002.01
2023-03-11T06:36:15.632Z,1002.02
2023-03-11T06:37:15.614Z,1002.08
2023-03-11T06:38:15.611Z,1001.99
2023-03-11T06:39:15.649Z,1001.97
2023-03-11T06:40:15.604Z,1002.04
2023-03-11T06:41:15.573Z,1002.09
2023-03-11T06:42:15.589Z,1002.07
2023-03-11T06:43:15.553Z,1002.15
2023-03-11T06:44:15.545Z,1002.14
2023-03-11T06:45:15.550Z,1002.10
2023-03-11T06:46:15.573Z,1002.22
2023-03-11T06:47:15.506Z,1002.23
2023-03-11T06:48:15.503Z,1002.19
2023-03-11T06:49:15.483Z,1002.24
2023-03-11T06:50:15.474Z,1002.23
2023-03-11T06:51:15.493Z,1002.22
2023-03-11T06:52:15.449Z,1002.28
2023-03-11T06:53:15.437Z,1002.23
2023-03-11T06:54:15.443Z,1002.28
2023-03-11T06:55:15.420Z,1002.26
2023-03-11T06:56:15.408Z,1002.31
2023-03-11T06:57:15.412Z,1002.35
2023-03-11T06:58:15.416Z,1002.39
2023-03-11T06:59:15.381Z,1002.37
2023-03-11T07:00:15.355Z,1002.40
2023-03-11T07:01:15.420Z,1002.40
2023-03-11T07:02:15.341Z,1002.43
2023-03-11T07:03:15.342Z,1002.48
2023-03-11T07:04:15.414Z,1002.42
2023-03-11T07:05:15.337Z,1002.45
2023-03-11T07:06:15.294Z,1002.53
2023-03-11T07:07:15.298Z,1002.51
2023-03-11T07:08:15.274Z,1002.56
2023-03-11T07:09:15.266Z,1002.62
2023-03-11T07:10:15.252Z,1002.61
2023-03-11T07:11:15.248Z,1002.56
2023-03-11T07:12:15.230Z,1002.66
2023-03-11T07:13:15.415Z,1002.68
2023-03-11T07:14:15.234Z,1002.67
2023-03-11T07:15:15.512Z,1002.68
2023-03-11T07:16:15.639Z,1002.64
2023-03-11T07:17:15.547Z,1002.67
2023-03-11T07:18:15.185Z,1002.63
2023-03-11T07:19:15.158Z,1002.71
2023-03-11T07:20:15.145Z,1002.69
2023-03-11T07:21:15.134Z,1002.68
2023-03-11T07:22:15.489Z,1002.70
2023-03-11T07:23:15.114Z,1002.75
2023-03-11T07:24:15.265Z,1002.80
2023-03-11T07:25:15.092Z,1002.73
2023-03-11T07:26:15.421Z,1002.78
2023-03-11T07:27:15.252Z,1002.75
2023-03-11T07:28:15.318Z,1002.85
2023-03-11T07:29:15.194Z,1002.82
2023-03-11T07:30:15.063Z,1002.86
2023-03-11T07:31:15.032Z,1002.78
2023-03-11T07:32:15.336Z,1002.85
2023-03-11T07:33:15.305Z,1002.87
2023-03-11T07:34:15.337Z,1002.84
2023-03-11T07:35:15.207Z,1002.81
2023-03-11T07:36:14.969Z,1002.87
2023-03-11T07:37:15.430Z,1002.84
2023-03-11T07:38:14.950Z,1002.93
2023-03-11T07:39:14.976Z,1002.89
2023-03-11T07:40:15.110Z,1002.88
2023-03-11T07:41:14.987Z,1002.97
2023-03-11T07:42:15.038Z,1002.97
2023-03-11T07:43:15.136Z,1002.92
2023-03-11T07:44:14.924Z,1002.94
2023-03-11T07:45:15.315Z,1002.95
2023-03-11T07:46:15.283Z,1002.94
2023-03-11T07:47:14.853Z,1003.09
2023-03-11T07:48:14.964Z,1003.11
2023-03-11T07:49:15.201Z,1003.07
2023-03-11T07:50:14.825Z,1003.07
2023-03-11T07:51:14.810Z,1003.03
2023-03-11T07:52:14.811Z,1003.12
2023-03-11T07:53:14.791Z,1003.09
2023-03-11T07:54:14.798Z,1003.07
2023-03-11T07:55:14.765Z,1003.10
2023-03-11T07:56:14.759Z,1003.24
2023-03-11T07:57:14.767Z,1003.17
2023-03-11T07:58:14.725Z,1003.26
2023-03-11T07:59:14.719Z,1003.22
2023-03-11T08:00:14.745Z,1003.27
2023-03-11T08:01:14.700Z,1003.37
2023-03-11T08:02:14.734Z,1003.48
2023-03-11T08:03:14.767Z,1003.60
2023-03-11T08:04:14.839Z,1003.61
2023-03-11T08:05:14.672Z,1003.67
2023-03-11T08:06:14.671Z,1003.60
2023-03-11T08:07:14.635Z,1003.65
2023-03-11T08:08:14.636Z,1003.61
2023-03-11T08:09:14.649Z,1003.49
2023-03-11T08:10:14.600Z,1003.41
2023-03-11T08:11:14.597Z,1003.31
2023-03-11T08:12:14.574Z,1003.32
2023-03-11T08:13:14.567Z,1003.40
2023-03-11T08:14:14.555Z,1003.40
2023-03-11T08:15:14.559Z,1003.40
2023-03-11T08:16:14.533Z,1003.53
2023-03-11T08:17:14.520Z,1003.49
2023-03-11T08:18:14.526Z,1003.57
2023-03-11T08:19:14.504Z,1003.50
2023-03-11T08:20:14.506Z,1003.52
2023-03-11T08:21:14.485Z,1003.54
2023-03-11T08:22:14.460Z,1003.54
2023-03-11T08:23:14.462Z,1003.57
2023-03-11T08:24:14.468Z,1003.58
2023-03-11T08:25:14.447Z,1003.56
2023-03-11T08:26:14.432Z,1003.52
2023-03-11T08:27:14.409Z,1003.55
2023-03-11T08:28:14.418Z,1003.57
2023-03-11T08:29:14.400Z,1003.60
2023-03-11T08:30:14.370Z,1003.57
2023-03-11T08:31:14.482Z,1003.61
2023-03-11T08:32:14.399Z,1003.60
2023-03-11T08:33:14.340Z,1003.66
2023-03-11T08:34:14.356Z,1003.69
2023-03-11T08:35:14.326Z,1003.61
2023-03-11T08:36:14.308Z,1003.64
2023-03-11T08:37:14.306Z,1003.71
2023-03-11T08:38:14.281Z,1003.72
2023-03-11T08:39:14.315Z,1003.76
2023-03-11T08:40:14.259Z,1003.71
2023-03-11T08:41:14.275Z,1003.74
2023-03-11T08:42:14.268Z,1003.73
2023-03-11T08:43:14.246Z,1003.77
2023-03-11T08:44:14.224Z,1003.79
2023-03-11T08:45:14.205Z,1003.74
2023-03-11T08:46:14.227Z,1003.68
2023-03-11T08:47:14.201Z,1003.63
2023-03-11T08:48:14.179Z,1003.66
2023-03-11T08:49:14.162Z,1003.64
2023-03-11T08:50:14.173Z,1003.66
2023-03-11T08:51:14.157Z,1003.61
2023-03-11T08:52:14.132Z,1003.60
2023-03-11T08:53:14.145Z,1003.62
2023-03-11T08:54:14.100Z,1003.64
2023-03-11T08:55:14.100Z,1003.67
2023-03-11T08:56:14.076Z,1003.67
2023-03-11T08:57:14.072Z,1003.69
2023-03-11T08:58:14.085Z,1003.65
2023-03-11T08:59:21.143Z,1003.66
2023-03-11T09:00:14.034Z,1003.62
2023-03-11T09:01:14.019Z,1003.57
2023-03-11T09:02:14.033Z,1003.70
2023-03-11T09:03:14.024Z,1003.65
2023-03-11T09:04:14.000Z,1003.66
2023-03-11T09:05:14.022Z,1003.58
2023-03-11T09:06:14.117Z,1003.60
2023-03-11T09:07:13.954Z,1003.60
2023-03-11T09:08:13.952Z,1003.64
2023-03-11T09:09:13.933Z,1003.67
2023-03-11T09:10:13.936Z,1003.70
2023-03-11T09:11:13.938Z,1003.67
2023-03-11T09:12:13.896Z,1003.72
2023-03-11T09:13:13.894Z,1003.71
2023-03-11T09:14:13.884Z,1003.72
2023-03-11T09:15:13.876Z,1003.74
2023-03-11T09:16:13.864Z,1003.75
2023-03-11T09:17:13.846Z,1003.77
2023-03-11T09:18:13.834Z,1003.75
2023-03-11T09:19:13.837Z,1003.73
2023-03-11T09:20:13.808Z,1003.82
2023-03-11T09:21:13.804Z,1003.77
2023-03-11T09:22:13.811Z,1003.78
2023-03-11T09:23:13.777Z,1003.72
2023-03-11T09:24:13.785Z,1003.73
2023-03-11T09:25:13.769Z,1003.81
2023-03-11T09:26:13.741Z,1003.74
2023-03-11T09:27:13.736Z,1003.78
2023-03-11T09:28:13.732Z,1003.81
2023-03-11T09:29:13.729Z,1003.76
2023-03-11T09:30:13.738Z,1003.79
2023-03-11T09:31:13.796Z,1003.80
2023-03-11T09:32:13.753Z,1003.80
2023-03-11T09:33:13.671Z,1003.81
2023-03-11T09:34:16.043Z,1003.83
2023-03-11T09:35:13.941Z,1003.82
2023-03-11T09:36:13.637Z,1003.87
2023-03-11T09:37:13.624Z,1003.88
2023-03-11T09:38:13.638Z,1003.85
2023-03-11T09:39:13.925Z,1003.86
2023-03-11T09:40:13.591Z,1003.85
2023-03-11T09:41:13.677Z,1003.88
2023-03-11T09:42:13.568Z,1003.94
2023-03-11T09:43:13.571Z,1003.98
2023-03-11T09:44:13.546Z,1003.92
2023-03-11T09:45:13.565Z,1003.97
2023-03-11T09:46:13.528Z,1004.06
2023-03-11T09:47:13.519Z,1003.98
2023-03-11T09:48:13.498Z,1004.01
2023-03-11T09:49:13.485Z,1004.09
2023-03-11T09:50:13.489Z,1004.01
2023-03-11T09:51:13.465Z,1004.09
2023-03-11T09:52:13.450Z,1004.02
2023-03-11T09:53:13.465Z,1004.07
2023-03-11T09:54:13.454Z,1004.11
2023-03-11T09:55:13.427Z,1004.21
2023-03-11T09:56:13.427Z,1004.17
2023-03-11T09:57:13.401Z,1004.19
2023-03-11T09:58:13.403Z,1004.26
2023-03-11T09:59:13.373Z,1004.17
2023-03-11T10:00:13.377Z,1004.21
2023-03-11T10:01:13.369Z,1004.26
2023-03-11T10:02:13.481Z,1004.27
2023-03-11T10:03:13.386Z,1004.34
2023-03-11T10:04:13.324Z,1004.28
2023-03-11T10:05:13.317Z,1004.24
2023-03-11T10:06:13.300Z,1004.27
2023-03-11T10:07:13.316Z,1004.25
2023-03-11T10:08:13.288Z,1004.24
2023-03-11T10:09:13.262Z,1004.20
2023-03-11T10:10:13.293Z,1004.21
2023-03-11T10:11:13.254Z,1004.21
2023-03-11T10:12:13.246Z,1004.13
2023-03-11T10:13:13.228Z,1004.20
2023-03-11T10:14:13.220Z,1004.22
2023-03-11T10:15:13.204Z,1004.25
2023-03-11T10:16:13.278Z,1004.26
2023-03-11T10:17:13.179Z,1004.15
2023-03-11T10:18:13.174Z,1004.13
2023-03-11T10:19:13.157Z,1004.28
2023-03-11T10:20:13.177Z,1004.18
2023-03-11T10:21:13.138Z,1004.16
2023-03-11T10:22:13.121Z,1004.24
2023-03-11T10:23:13.112Z,1004.22
2023-03-11T10:24:13.109Z,1004.24
2023-03-11T10:25:13.096Z,1004.24
2023-03-11T10:26:13.106Z,1004.25
2023-03-11T10:27:13.065Z,1004.24
2023-03-11T10:28:13.053Z,1004.27
2023-03-11T10:29:13.056Z,1004.17
2023-03-11T10:30:13.036Z,1004.25
2023-03-11T10:31:13.110Z,1004.22
2023-03-11T10:32:13.077Z,1004.29
2023-03-11T10:33:12.996Z,1004.29
2023-03-11T10:34:13.001Z,1004.28
2023-03-11T10:35:12.977Z,1004.25
2023-03-11T10:36:12.994Z,1004.27
2023-03-11T10:37:12.983Z,1004.30
2023-03-11T10:38:12.944Z,1004.32
2023-03-11T10:39:12.939Z,1004.34
2023-03-11T10:40:12.917Z,1004.33
2023-03-11T10:41:12.909Z,1004.36
2023-03-11T10:42:12.920Z,1004.36
2023-03-11T10:43:12.884Z,1004.37
2023-03-11T10:44:12.901Z,1004.42
2023-03-11T10:45:12.862Z,1004.43
2023-03-11T10:46:12.891Z,1004.45
2023-03-11T10:47:12.847Z,1004.39
2023-03-11T10:48:12.837Z,1004.42
2023-03-11T10:49:12.824Z,1004.50
2023-03-11T10:50:12.814Z,1004.48
2023-03-11T10:51:12.799Z,1004.45
2023-03-11T10:52:12.793Z,1004.48
2023-03-11T10:53:12.783Z,1004.44
2023-03-11T10:54:12.764Z,1004.42
2023-03-11T10:55:12.793Z,1004.53
2023-03-11T10:56:14.636Z,1004.48
2023-03-11T10:57:12.742Z,1004.50
2023-03-11T10:58:12.741Z,1004.54
2023-03-11T10:59:12.708Z,1004.53
2023-03-11T11:00:12.701Z,1004.60
2023-03-11T11:01:12.744Z,1004.58
2023-03-11T11:02:12.689Z,1004.63
2023-03-11T11:03:12.674Z,1004.51
2023-03-11T11:04:12.719Z,1004.53
2023-03-11T11:05:12.648Z,1004.50
2023-03-11T11:06:12.635Z,1004.47
2023-03-11T11:07:12.630Z,1004.47
2023-03-11T11:08:12.624Z,1004.52
2023-03-11T11:09:12.607Z,1004.47
2023-03-11T11:10:12.590Z,1004.40
2023-03-11T11:11:12.600Z,1004.51
2023-03-11T11:12:12.571Z,1004.47
2023-03-11T11:13:12.559Z,1004.42
2023-03-11T11:14:12.577Z,1004.51
2023-03-11T11:15:12.541Z,1004.51
2023-03-11T11:16:12.574Z,1004.48
2023-03-11T11:17:12.512Z,1004.45
2023-03-11T11:18:12.507Z,1004.47
2023-03-11T11:19:12.497Z,1004.43
2023-03-11T11:20:12.482Z,1004.47
2023-03-11T11:21:12.470Z,1004.44
2023-03-11T11:22:12.471Z,1004.44
2023-03-11T11:23:12.446Z,1004.39
2023-03-11T11:24:12.452Z,1004.47
2023-03-11T11:25:12.493Z,1004.45
2023-03-11T11:26:12.419Z,1004.48
2023-03-11T11:27:12.401Z,1004.40
2023-03-11T11:28:12.403Z,1004.46
2023-03-11T11:29:12.382Z,1004.41
2023-03-11T11:30:12.477Z,1004.41
2023-03-11T11:31:12.432Z,1004.41
2023-03-11T11:32:12.371Z,1004.42
2023-03-11T11:33:12.334Z,1004.39
2023-03-11T11:34:12.345Z,1004.39
2023-03-11T11:35:12.326Z,1004.44
2023-03-11T11:36:12.302Z,1004.41
2023-03-11T11:37:12.306Z,1004.42
2023-03-11T11:38:12.281Z,1004.37
2023-03-11T11:39:12.291Z,1004.36
2023-03-11T11:40:12.274Z,1004.36
2023-03-11T11:41:12.244Z,1004.36
2023-03-11T11:42:12.264Z,1004.36
2023-03-11T11:43:12.222Z,1004.36
2023-03-11T11:44:12.213Z,1004.27
2023-03-11T11:45:12.210Z,1004.34
2023-03-11T11:46:12.258Z,1004.33
2023-03-11T11:47:12.198Z,1004.39
2023-03-11T11:48:12.183Z,1004.38
2023-03-11T11:49:12.157Z,1004.36
2023-03-11T11:50:12.145Z,1004.39
2023-03-11T11:51:12.139Z,1004.45
2023-03-11T11:52:12.123Z,1004.44
2023-03-11T11:53:12.138Z,1004.45
2023-03-11T11:54:12.101Z,1004.49
2023-03-11T11:55:12.087Z,1004.47
2023-03-11T11:56:12.086Z,1004.46
2023-03-11T11:57:12.068Z,1004.46
2023-03-11T11:58:12.093Z,1004.45
2023-03-11T11:59:12.047Z,1004.41
2023-03-11T12:00:12.032Z,1004.40
2023-03-11T12:01:12.027Z,1004.45
2023-03-11T12:02:12.033Z,1004.39
2023-03-11T12:03:12.050Z,1004.37
2023-03-11T12:04:11.993Z,1004.40
2023-03-11T12:05:12.051Z,1004.35
2023-03-11T12:06:11.971Z,1004.29
2023-03-11T12:07:11.974Z,1004.37
2023-03-11T12:08:11.956Z,1004.33
2023-03-11T12:09:11.949Z,1004.25
2023-03-11T12:10:22.173Z,1004.29
2023-03-11T12:11:12.909Z,1004.30
2023-03-11T12:12:11.909Z,1004.28